createdAt,value
2018-05-24T00:00:15.988Z,74.08
2018-05-24T00:02:45.099Z,73.45
2018-05-24T00:05:15.152Z,73.19
2018-05-24T00:07:44.253Z,73.16
2018-05-24T00:10:14.141Z,73.14
2018-05-24T00:12:43.246Z,73.45
2018-05-24T00:15:12.368Z,73.46
2018-05-24T00:17:41.509Z,73.18
2018-05-24T00:20:12.367Z,73.34
2018-05-24T00:22:41.465Z,73.67
2018-05-24T00:25:10.610Z,72.91
2018-05-24T00:27:39.762Z,72.77
2018-05-24T00:30:08.879Z,73.44
2018-05-24T00:32:38.891Z,73.60
2018-05-24T00:35:07.961Z,73.97
2018-05-24T00:37:37.066Z,74.33
2018-05-24T00:40:07.403Z,74.79
2018-05-24T00:42:36.503Z,75.66
2018-05-24T00:45:05.657Z,75.45
2018-05-24T00:47:34.778Z,75.69
2018-05-24T00:50:03.978Z,75.99
2018-05-24T00:52:33.105Z,76.16
2018-05-24T00:58:20.661Z,76.57
2018-05-24T01:00:49.737Z,76.49
2018-05-24T01:03:18.895Z,76.90
2018-05-24T01:05:48.031Z,77.37
2018-05-24T01:08:17.244Z,77.48
2018-05-24T01:10:46.363Z,76.46
2018-05-24T01:13:16.305Z,75.78
2018-05-24T01:15:46.305Z,75.65
2018-05-24T01:18:15.322Z,75.86
2018-05-24T01:20:44.462Z,76.36
2018-05-24T01:23:13.606Z,76.33
2018-05-24T01:25:42.765Z,76.45
2018-05-24T01:28:12.630Z,76.81
2018-05-24T01:30:41.759Z,76.03
2018-05-24T01:33:10.868Z,76.10
2018-05-24T01:35:40.019Z,76.35
2018-05-24T01:38:09.131Z,76.73
2018-05-24T01:40:38.260Z,76.66
2018-05-24T01:43:07.375Z,76.66
2018-05-24T01:45:37.269Z,76.50
2018-05-24T01:48:06.389Z,76.87
2018-05-24T01:50:35.546Z,76.53
2018-05-24T01:53:04.689Z,76.30
2018-05-24T01:55:34.577Z,76.22
2018-05-24T01:58:04.472Z,76.37
2018-05-24T02:00:33.617Z,76.71
2018-05-24T02:03:03.567Z,76.98
2018-05-24T02:05:32.706Z,77.28
2018-05-24T02:08:01.834Z,77.07
2018-05-24T02:10:30.955Z,77.36
2018-05-24T02:13:00.102Z,77.23
2018-05-24T02:15:30.000Z,77.06
2018-05-24T02:17:59.129Z,76.11
2018-05-24T02:20:28.288Z,75.51
2018-05-24T02:22:58.333Z,76.12
2018-05-24T02:25:27.456Z,76.19
2018-05-24T02:27:56.557Z,75.84
2018-05-24T02:30:25.690Z,75.67
2018-05-24T02:32:54.815Z,75.49
2018-05-24T02:35:24.717Z,75.73
2018-05-24T02:37:53.963Z,75.62
2018-05-24T02:40:23.100Z,75.78
2018-05-24T02:42:53.714Z,76.12
2018-05-24T02:45:22.829Z,75.62
2018-05-24T02:47:51.942Z,75.71
2018-05-24T02:50:21.832Z,76.09
2018-05-24T02:52:50.968Z,76.12
2018-05-24T02:55:20.816Z,76.36
2018-05-24T02:57:51.287Z,76.07
2018-05-24T03:00:21.753Z,75.53
2018-05-24T03:02:50.865Z,75.51
2018-05-24T03:05:20.864Z,76.12
2018-05-24T03:07:49.998Z,76.27
2018-05-24T03:10:19.117Z,76.33
2018-05-24T03:12:48.231Z,75.92
2018-05-24T03:15:18.115Z,76.23
2018-05-24T03:17:47.230Z,75.89
2018-05-24T03:20:16.338Z,76.08
2018-05-24T03:22:46.266Z,75.36
2018-05-24T03:25:15.370Z,75.83
2018-05-24T03:27:45.604Z,75.12
2018-05-24T03:30:14.738Z,74.79
2018-05-24T03:32:43.842Z,74.74
2018-05-24T03:35:13.765Z,74.59
2018-05-24T03:37:43.635Z,75.18
2018-05-24T03:40:12.768Z,75.27
2018-05-24T03:42:41.873Z,75.20
2018-05-24T03:45:11.763Z,75.14
2018-05-24T03:47:40.879Z,75.19
2018-05-24T03:50:10.763Z,75.04
2018-05-24T03:52:39.872Z,75.29
2018-05-24T03:55:09.008Z,76.08
2018-05-24T03:57:38.930Z,76.27
2018-05-24T04:00:26.487Z,76.50
2018-05-24T04:03:13.889Z,76.69
2018-05-24T04:05:43.065Z,76.88
2018-05-24T04:08:12.179Z,76.63
2018-05-24T04:10:41.310Z,76.78
2018-05-24T04:13:10.501Z,76.93
2018-05-24T04:15:43.231Z,76.81
2018-05-24T04:18:12.840Z,77.02
2018-05-24T04:20:43.759Z,76.96
2018-05-24T04:23:12.893Z,76.81
2018-05-24T04:25:42.754Z,76.28
2018-05-24T04:28:11.860Z,76.27
2018-05-24T04:30:42.489Z,75.93
2018-05-24T04:33:11.638Z,75.95
2018-05-24T04:35:40.975Z,75.59
2018-05-24T04:38:10.857Z,75.04
2018-05-24T04:40:42.258Z,74.80
2018-05-24T04:43:11.390Z,74.85
2018-05-24T04:45:40.561Z,75.02
2018-05-24T04:48:10.531Z,75.03
2018-05-24T04:50:39.723Z,74.76
2018-05-24T04:53:08.842Z,74.31
2018-05-24T04:55:37.986Z,74.27
2018-05-24T04:58:07.870Z,74.46
2018-05-24T05:00:36.991Z,74.68
2018-05-24T05:03:06.875Z,74.81
2018-05-24T05:05:35.992Z,75.00
2018-05-24T05:08:05.898Z,75.48
2018-05-24T05:10:35.010Z,75.84
2018-05-24T05:13:04.980Z,76.23
2018-05-24T05:15:34.132Z,76.27
2018-05-24T05:18:03.206Z,76.23
2018-05-24T05:20:34.077Z,76.20
2018-05-24T05:23:03.992Z,75.98
2018-05-24T05:25:33.081Z,76.08
2018-05-24T05:28:02.177Z,76.22
2018-05-24T05:30:32.373Z,76.43
2018-05-24T05:33:02.298Z,76.74
2018-05-24T05:35:32.195Z,76.47
2018-05-24T05:38:01.303Z,76.38
2018-05-24T05:40:31.188Z,76.52
2018-05-24T05:43:00.320Z,76.81
2018-05-24T05:45:30.303Z,76.57
2018-05-24T05:47:59.397Z,76.64
2018-05-24T05:50:28.548Z,76.70
2018-05-24T05:52:57.677Z,76.36
2018-05-24T05:55:26.843Z,76.76
2018-05-24T05:57:55.945Z,76.58
2018-05-24T06:00:25.091Z,76.95
2018-05-24T06:02:54.251Z,77.30
2018-05-24T06:05:23.425Z,76.90
2018-05-24T06:07:53.295Z,77.01
2018-05-24T06:10:22.397Z,76.87
2018-05-24T06:12:51.496Z,76.40
2018-05-24T06:15:21.267Z,75.62
2018-05-24T06:17:51.159Z,75.90
2018-05-24T06:20:22.206Z,75.48
2018-05-24T06:22:51.327Z,76.00
2018-05-24T06:25:21.259Z,76.03
2018-05-24T06:27:50.428Z,76.38
2018-05-24T06:30:19.569Z,76.12
2018-05-24T06:32:48.675Z,75.93
2018-05-24T06:35:19.521Z,76.03
2018-05-24T06:37:49.420Z,76.02
2018-05-24T06:40:20.212Z,76.05
2018-05-24T06:42:50.102Z,76.31
2018-05-24T06:45:19.262Z,75.89
2018-05-24T06:47:48.395Z,75.34
2018-05-24T06:50:18.273Z,75.34
2018-05-24T06:52:48.395Z,74.98
2018-05-24T06:55:18.302Z,75.27
2018-05-24T06:57:47.424Z,75.02
2018-05-24T07:00:16.701Z,75.48
2018-05-24T07:02:45.812Z,75.15
2018-05-24T07:05:15.726Z,74.87
2018-05-24T07:07:44.852Z,74.21
2018-05-24T07:10:13.992Z,74.12
2018-05-24T07:12:43.080Z,73.93
2018-05-24T07:15:13.026Z,73.03
2018-05-24T07:17:42.142Z,72.54
2018-05-24T07:20:11.288Z,71.57
2018-05-24T07:22:40.395Z,71.19
2018-05-24T07:25:09.533Z,70.64
2018-05-24T07:27:39.399Z,70.02
2018-05-24T07:30:09.521Z,69.68
2018-05-24T07:32:38.657Z,70.29
2018-05-24T07:35:08.551Z,70.62
2018-05-24T07:37:37.750Z,70.99
2018-05-24T07:40:06.829Z,71.27
2018-05-24T07:42:35.961Z,71.31
2018-05-24T07:45:05.075Z,71.41
2018-05-24T07:47:34.181Z,71.76
2018-05-24T07:50:03.291Z,71.64
2018-05-24T07:52:33.495Z,71.52
2018-05-24T07:55:02.626Z,71.30
2018-05-24T07:57:31.787Z,71.21
2018-05-24T08:00:01.635Z,70.56
2018-05-24T08:02:30.763Z,70.59
2018-05-24T08:05:00.637Z,70.87
2018-05-24T08:07:29.742Z,71.05
2018-05-24T08:09:58.885Z,71.59
2018-05-24T08:12:28.035Z,71.18
2018-05-24T08:14:57.167Z,71.60
2018-05-24T08:17:28.094Z,71.37
2018-05-24T08:19:57.997Z,71.29
2018-05-24T08:22:27.224Z,71.31
2018-05-24T08:24:56.265Z,70.28
2018-05-24T08:27:25.389Z,70.99
2018-05-24T08:29:54.509Z,70.42
2018-05-24T08:32:23.637Z,70.08
2018-05-24T08:34:52.776Z,70.25
2018-05-24T08:37:22.895Z,70.38
2018-05-24T08:39:52.002Z,70.84
2018-05-24T08:42:22.565Z,69.28
2018-05-24T08:44:51.686Z,68.99
2018-05-24T08:47:21.626Z,69.09
2018-05-24T08:49:51.454Z,69.03
2018-05-24T08:52:21.556Z,68.59
2018-05-24T08:54:51.442Z,68.86
2018-05-24T08:57:22.427Z,68.78
2018-05-24T08:59:52.341Z,68.51
2018-05-24T09:02:21.524Z,68.04
2018-05-24T09:04:50.665Z,67.87
2018-05-24T09:07:19.790Z,67.09
2018-05-24T09:09:48.941Z,66.99
2018-05-24T09:12:18.820Z,67.46
2018-05-24T09:14:48.710Z,67.29
2018-05-24T09:17:17.811Z,67.83
2018-05-24T09:19:47.692Z,68.84
2018-05-24T09:22:16.835Z,67.05
2018-05-24T09:24:46.989Z,66.88
2018-05-24T09:27:16.883Z,65.97
2018-05-24T09:29:46.040Z,66.80
2018-05-24T09:32:15.165Z,66.38
2018-05-24T09:34:44.293Z,65.15
2018-05-24T09:37:13.409Z,64.65
2018-05-24T09:39:42.511Z,64.89
2018-05-24T09:42:11.709Z,65.18
2018-05-24T09:44:41.595Z,64.21
2018-05-24T09:47:11.476Z,65.67
2018-05-24T09:49:40.657Z,64.08
2018-05-24T09:52:10.511Z,64.11
2018-05-24T09:54:39.643Z,62.96
2018-05-24T09:57:08.771Z,62.09
2018-05-24T09:59:38.805Z,63.05
2018-05-24T10:02:07.921Z,61.99
2018-05-24T10:04:38.106Z,62.53
2018-05-24T10:07:07.244Z,60.74
2018-05-24T10:09:37.147Z,60.83
2018-05-24T10:12:06.284Z,62.88
2018-05-24T10:14:36.344Z,63.40
2018-05-24T10:17:05.485Z,64.21
2018-05-24T10:19:35.387Z,63.06
2018-05-24T10:22:04.516Z,63.30
2018-05-24T10:24:33.661Z,62.72
2018-05-24T10:27:02.785Z,62.93
2018-05-24T10:29:32.717Z,62.52
2018-05-24T10:32:01.829Z,62.85
2018-05-24T10:34:30.938Z,61.81
2018-05-24T10:37:00.916Z,60.43
2018-05-24T10:39:30.067Z,60.00
2018-05-24T10:41:59.944Z,61.13
2018-05-24T10:44:30.112Z,59.45
2018-05-24T10:46:59.207Z,58.42
2018-05-24T10:49:28.601Z,58.98
2018-05-24T10:51:57.730Z,58.38
2018-05-24T10:54:27.610Z,62.33
2018-05-24T10:56:56.775Z,60.94
2018-05-24T10:59:25.877Z,61.60
2018-05-24T11:01:55.084Z,61.59
2018-05-24T11:04:24.237Z,61.14
2018-05-24T11:06:54.148Z,61.43
2018-05-24T11:09:23.263Z,62.19
2018-05-24T11:11:52.384Z,60.88
2018-05-24T11:14:22.779Z,61.06
2018-05-24T11:16:51.922Z,62.40
2018-05-24T11:19:21.913Z,62.58
2018-05-24T11:21:51.053Z,63.44
2018-05-24T11:24:20.232Z,63.45
2018-05-24T11:26:49.337Z,61.87
2018-05-24T11:29:19.407Z,61.90
2018-05-24T11:31:48.614Z,62.30
2018-05-24T11:34:18.695Z,62.69
2018-05-24T11:36:47.850Z,63.33
2018-05-24T11:39:18.751Z,62.27
2018-05-24T11:41:47.894Z,63.24
2018-05-24T11:44:17.095Z,63.93
2018-05-24T11:46:46.202Z,63.38
2018-05-24T11:49:16.385Z,63.17
2018-05-24T11:51:45.501Z,62.90
2018-05-24T11:54:14.707Z,63.78
2018-05-24T11:56:44.879Z,64.16
2018-05-24T11:59:14.763Z,64.52
2018-05-24T12:01:44.011Z,66.26
2018-05-24T12:04:13.076Z,65.77
2018-05-24T12:06:42.193Z,65.77
2018-05-24T12:09:11.334Z,65.76
2018-05-24T12:11:40.504Z,66.06
2018-05-24T12:14:09.668Z,66.42
2018-05-24T12:16:39.644Z,66.34
2018-05-24T12:19:08.728Z,66.80
2018-05-24T12:21:37.887Z,66.82
2018-05-24T12:24:07.832Z,66.81
2018-05-24T12:26:37.857Z,67.14
2018-05-24T12:29:07.842Z,67.34
2018-05-24T12:31:36.960Z,67.25
2018-05-24T12:34:06.095Z,67.44
2018-05-24T12:36:35.205Z,67.72
2018-05-24T12:39:06.064Z,68.12
2018-05-24T12:41:35.304Z,68.65
2018-05-24T12:44:04.419Z,68.59
2018-05-24T12:46:33.562Z,68.86
2018-05-24T12:49:02.739Z,69.04
2018-05-24T12:51:32.751Z,69.86
2018-05-24T12:54:02.641Z,70.09
2018-05-24T12:56:32.606Z,70.67
2018-05-24T12:59:02.450Z,70.26
2018-05-24T13:01:31.613Z,69.89
2018-05-24T13:04:00.757Z,70.12
2018-05-24T13:06:30.885Z,70.62
2018-05-24T13:09:00.036Z,70.43
2018-05-24T13:11:29.141Z,70.85
2018-05-24T13:13:58.254Z,70.64
2018-05-24T13:16:27.362Z,69.30
2018-05-24T13:18:56.518Z,69.38
2018-05-24T13:21:26.571Z,69.02
2018-05-24T13:23:55.787Z,68.69
2018-05-24T13:26:24.912Z,66.94
2018-05-24T13:28:54.838Z,65.27
2018-05-24T13:31:24.693Z,64.40
2018-05-24T13:33:56.122Z,63.28
2018-05-24T13:36:25.258Z,62.00
2018-05-24T13:38:54.339Z,62.83
2018-05-24T13:41:23.497Z,62.05
2018-05-24T13:43:52.753Z,61.73
2018-05-24T13:46:22.436Z,60.94
2018-05-24T13:48:51.587Z,60.37
2018-05-24T13:51:20.656Z,60.63
2018-05-24T13:53:49.797Z,61.22
2018-05-24T13:56:18.934Z,61.09
2018-05-24T13:58:48.068Z,61.31
2018-05-24T14:01:17.944Z,61.43
2018-05-24T14:03:47.837Z,60.85
2018-05-24T14:06:16.929Z,60.25
2018-05-24T14:08:46.060Z,59.55
2018-05-24T14:11:15.175Z,59.15
2018-05-24T14:13:45.152Z,58.54
2018-05-24T14:16:14.280Z,58.60
2018-05-24T14:18:43.381Z,58.10
2018-05-24T14:21:13.263Z,56.72
2018-05-24T14:23:43.190Z,56.31
2018-05-24T14:26:12.384Z,55.27
2018-05-24T14:28:41.491Z,54.43
2018-05-24T14:31:10.695Z,54.00
2018-05-24T14:33:40.604Z,53.91
2018-05-24T14:36:09.786Z,52.79
2018-05-24T14:38:38.896Z,52.69
2018-05-24T14:41:08.108Z,52.24
2018-05-24T14:43:38.006Z,51.24
2018-05-24T14:46:07.148Z,51.28
2018-05-24T14:48:37.272Z,51.26
2018-05-24T14:51:06.401Z,50.85
2018-05-24T14:53:35.561Z,51.83
2018-05-24T14:56:04.661Z,51.12
2018-05-24T14:58:34.720Z,50.94
2018-05-24T15:01:03.869Z,50.22
2018-05-24T15:03:34.726Z,50.18
2018-05-24T15:06:03.843Z,49.12
2018-05-24T15:08:32.952Z,49.06
2018-05-24T15:11:02.061Z,48.79
2018-05-24T15:13:49.734Z,48.30
2018-05-24T15:16:19.624Z,48.02
2018-05-24T15:18:50.444Z,47.14
2018-05-24T15:21:19.606Z,47.10
2018-05-24T15:23:49.781Z,47.24
2018-05-24T15:26:18.889Z,48.22
2018-05-24T15:28:48.795Z,48.26
2018-05-24T15:31:17.911Z,48.62
2018-05-24T15:33:47.939Z,49.12
2018-05-24T15:36:17.063Z,49.30
2018-05-24T15:38:46.217Z,48.23
2018-05-24T15:41:16.083Z,48.18
2018-05-24T15:43:45.215Z,48.71
2018-05-24T15:46:15.120Z,48.36
2018-05-24T15:48:44.991Z,50.19
2018-05-24T15:51:14.110Z,50.08
2018-05-24T15:53:43.247Z,48.72
2018-05-24T15:56:13.106Z,50.08
2018-05-24T15:58:42.245Z,52.18
2018-05-24T16:01:12.154Z,54.14
2018-05-24T16:03:42.056Z,54.04
2018-05-24T16:06:11.965Z,54.39
2018-05-24T16:08:41.098Z,54.06
2018-05-24T16:11:10.191Z,53.53
2018-05-24T16:13:39.328Z,54.66
2018-05-24T16:16:09.205Z,55.34
2018-05-24T16:18:38.333Z,53.68
2018-05-24T16:21:07.454Z,55.02
2018-05-24T16:23:37.386Z,56.26
2018-05-24T16:26:06.492Z,55.65
2018-05-24T16:28:35.675Z,54.98
2018-05-24T16:31:04.818Z,55.73
2018-05-24T16:33:34.753Z,54.56
2018-05-24T16:36:03.880Z,54.54
2018-05-24T16:38:33.820Z,54.74
2018-05-24T16:41:02.918Z,54.92
2018-05-24T16:43:32.070Z,55.17
2018-05-24T16:46:01.482Z,55.56
2018-05-24T16:48:31.412Z,56.07
2018-05-24T16:51:01.320Z,56.09
2018-05-24T16:53:30.418Z,56.10
2018-05-24T16:56:00.344Z,56.41
2018-05-24T16:58:29.487Z,56.65
2018-05-24T17:00:58.639Z,56.62
2018-05-24T17:03:27.764Z,56.96
2018-05-24T17:05:56.889Z,56.89
2018-05-24T17:08:26.004Z,57.13
2018-05-24T17:10:56.143Z,57.03
2018-05-24T17:13:25.250Z,57.08
2018-05-24T17:15:55.405Z,57.29
2018-05-24T17:18:24.524Z,57.44
2018-05-24T17:20:54.677Z,57.70
2018-05-24T17:23:24.541Z,57.86
2018-05-24T17:25:53.702Z,57.50
2018-05-24T17:28:22.875Z,57.34
2018-05-24T17:30:51.982Z,57.21
2018-05-24T17:33:23.116Z,57.14
2018-05-24T17:35:52.984Z,57.27
2018-05-24T17:38:23.407Z,55.51
2018-05-24T17:40:53.598Z,54.52
2018-05-24T17:43:22.919Z,55.11
2018-05-24T17:45:52.042Z,56.53
2018-05-24T17:48:21.170Z,56.47
2018-05-24T17:50:51.110Z,57.45
2018-05-24T17:53:20.200Z,59.05
2018-05-24T17:55:50.116Z,61.59
2018-05-24T17:58:20.015Z,62.68
2018-05-24T18:00:49.923Z,63.64
2018-05-24T18:03:19.863Z,64.52
2018-05-24T18:05:49.960Z,66.35
2018-05-24T18:08:19.884Z,66.54
2018-05-24T18:10:50.684Z,66.63
2018-05-24T18:13:19.832Z,67.27
2018-05-24T18:15:50.955Z,66.20
2018-05-24T18:18:20.856Z,65.94
2018-05-24T18:20:49.950Z,66.37
2018-05-24T18:23:19.854Z,66.07
2018-05-24T18:25:48.986Z,65.84
2018-05-24T18:28:18.230Z,66.41
2018-05-24T18:30:47.323Z,66.40
2018-05-24T18:33:17.476Z,67.19
2018-05-24T18:35:47.461Z,68.22
2018-05-24T18:38:16.602Z,68.65
2018-05-24T18:40:46.493Z,68.96
2018-05-24T18:43:15.661Z,69.05
2018-05-24T18:45:44.806Z,69.00
2018-05-24T18:48:15.759Z,68.49
2018-05-24T18:50:45.717Z,68.07
2018-05-24T18:53:16.560Z,67.79
2018-05-24T18:55:45.697Z,67.82
2018-05-24T18:58:15.567Z,67.65
2018-05-24T19:00:44.699Z,67.75
2018-05-24T19:03:14.864Z,67.70
2018-05-24T19:05:43.967Z,68.17
2018-05-24T19:08:14.156Z,68.30
2018-05-24T19:10:43.295Z,69.32
2018-05-24T19:13:12.465Z,69.40
2018-05-24T19:15:41.584Z,69.62
2018-05-24T19:18:10.729Z,69.18
2018-05-24T19:20:39.910Z,69.45
2018-05-24T19:23:09.973Z,68.98
2018-05-24T19:25:39.127Z,68.72
2018-05-24T19:28:08.293Z,68.75
2018-05-24T19:30:39.534Z,68.84
2018-05-24T19:33:08.667Z,68.70
2018-05-24T19:35:37.887Z,69.14
2018-05-24T19:38:08.806Z,69.66
2018-05-24T19:40:37.984Z,69.39
2018-05-24T19:43:07.899Z,69.86
2018-05-24T19:45:37.795Z,69.77
2018-05-24T19:48:08.755Z,69.60
2018-05-24T19:50:38.698Z,69.88
2018-05-24T19:53:24.621Z,69.89
2018-05-24T19:55:53.804Z,69.77
2018-05-24T19:58:24.292Z,69.65
2018-05-24T20:00:54.174Z,69.03
2018-05-24T20:03:23.351Z,68.60
2018-05-24T20:05:52.478Z,68.62
2018-05-24T20:08:22.634Z,69.41
2018-05-24T20:10:51.823Z,69.81
2018-05-24T20:13:21.011Z,69.38
2018-05-24T20:15:50.937Z,70.28
2018-05-24T20:18:20.856Z,71.14
2018-05-24T20:20:50.723Z,72.31
2018-05-24T20:23:19.938Z,72.70
2018-05-24T20:25:49.826Z,73.17
2018-05-24T20:28:18.963Z,73.51
2018-05-24T20:30:48.078Z,73.47
2018-05-24T20:33:18.204Z,73.73
2018-05-24T20:35:47.357Z,73.80
2018-05-24T20:38:17.296Z,74.10
2018-05-24T20:40:47.243Z,74.25
2018-05-24T20:43:17.335Z,74.39
2018-05-24T20:45:46.479Z,74.14
2018-05-24T20:48:15.632Z,73.86
2018-05-24T20:50:45.631Z,74.11
2018-05-24T20:53:18.392Z,74.12
2018-05-24T20:55:47.558Z,74.71
2018-05-24T20:58:16.695Z,75.19
2018-05-24T21:00:46.600Z,76.04
2018-05-24T21:03:15.740Z,76.30
2018-05-24T21:05:44.854Z,76.79
2018-05-24T21:08:15.506Z,76.67
2018-05-24T21:10:44.590Z,76.47
2018-05-24T21:13:13.741Z,76.35
2018-05-24T21:15:42.853Z,76.35
2018-05-24T21:18:12.008Z,75.68
2018-05-24T21:20:41.150Z,75.41
2018-05-24T21:23:12.011Z,76.01
2018-05-24T21:25:41.156Z,75.51
2018-05-24T21:28:11.144Z,75.72
2018-05-24T21:30:40.320Z,76.08
2018-05-24T21:33:09.417Z,76.52
2018-05-24T21:35:38.541Z,76.16
2018-05-24T21:38:07.669Z,76.15
2018-05-24T21:40:37.554Z,75.87
2018-05-24T21:43:06.688Z,75.45
2018-05-24T21:45:35.853Z,74.91
2018-05-24T21:48:04.978Z,74.72
2018-05-24T21:50:34.083Z,74.78
2018-05-24T21:53:03.206Z,74.78
2018-05-24T21:55:33.354Z,74.45
2018-05-24T21:58:02.461Z,75.03
2018-05-24T22:00:32.391Z,75.74
2018-05-24T22:03:02.266Z,76.01
2018-05-24T22:05:31.386Z,76.10
2018-05-24T22:08:00.505Z,76.46
2018-05-24T22:10:30.468Z,76.68
2018-05-24T22:12:59.604Z,76.90
2018-05-24T22:15:29.561Z,76.99
2018-05-24T22:17:58.666Z,77.01
2018-05-24T22:20:27.813Z,75.90
2018-05-24T22:22:57.752Z,76.29
2018-05-24T22:25:26.908Z,76.22
2018-05-24T22:27:56.070Z,76.55
2018-05-24T22:30:25.204Z,76.80
2018-05-24T22:32:54.317Z,77.21
2018-05-24T22:35:23.453Z,77.17
2018-05-24T22:37:52.602Z,76.03
2018-05-24T22:40:23.785Z,76.26
2018-05-24T22:42:52.916Z,76.70
2018-05-24T22:45:24.847Z,76.33
2018-05-24T22:47:53.988Z,76.52
2018-05-24T22:50:23.586Z,76.38
2018-05-24T22:52:52.779Z,76.01
2018-05-24T22:55:22.978Z,76.06
2018-05-24T22:57:52.114Z,75.83
2018-05-24T23:00:21.290Z,75.59
2018-05-24T23:02:50.405Z,74.97
2018-05-24T23:05:19.549Z,74.83
2018-05-24T23:07:48.677Z,75.00
2018-05-24T23:10:17.822Z,75.32
2018-05-24T23:12:47.729Z,75.05
2018-05-24T23:15:17.626Z,74.82
2018-05-24T23:17:46.763Z,75.44
2018-05-24T23:20:16.638Z,75.74
2018-05-24T23:22:45.785Z,75.85
2018-05-24T23:25:14.947Z,75.93
2018-05-24T23:27:44.880Z,75.78
2018-05-24T23:30:14.761Z,75.62
2018-05-24T23:32:43.945Z,75.70
2018-05-24T23:35:13.055Z,75.80
2018-05-24T23:37:43.608Z,75.84
2018-05-24T23:40:14.604Z,75.90
2018-05-24T23:42:43.745Z,75.72
2018-05-24T23:45:14.434Z,76.20
2018-05-24T23:47:44.332Z,76.69
2018-05-24T23:50:13.425Z,76.73
2018-05-24T23:52:42.520Z,76.87
2018-05-24T23:55:11.647Z,76.80
2018-05-24T23:57:40.764Z,76.60
